Decoded Metar for MMSD (SAN JOSE DEL CABO in MEXICO) (IATA:SJD) | Meteo·Mobile Aviation Weather
aviador You're here:

MMSD Decoded Metar

SAN JOSE DEL CABO in MEXICO
Report Time2019-04-24 13:48:00
UTC Time2019-04-24 14:16:21
Flight Rules ifr IFR
WindCalm
Visibility9999 m
Phenomena:N/A
Clouds:Overcast 008 Hf
Expected CloudBase > 1,600 ft AGL from Temp-Dew spread
Ceiling800 ft
Temp16°C (ISA +2)
Dew Point12°C (77% RH)
QNH1015 hPa
Density Alt682 ft
Elevation358 ft
Report Wrong Elevation
Raw Report
METAR MMSD 241348Z 00000KT 10SM OVC008 16/12 A2996 RMK 8/6// HZY=

Extra information for MMSD:More info

Metar Taf Metar & Taf Last 4 Metars F.Rules Stats Wind Profile Meteogram Temp Stats Airport Information Weather charts Add Link Nearby VenuesMetar ALERT Operation Metar Decoded Social comments